Time;durP1;ratioP1;P1;durP2;ratioP2;P2;SDS_P1;SDS_P2;PMS_P1;PMS_P2;Temp;Humidity;BMP_temperature;BMP_pressure;BME280_temperature;BME280_humidity;BME280_pressure;Samples;Min_cycle;Max_cycle;Signal;HPM_P1;HPM_P2
2022/11/12 00:00:05;;;;;;;22.75;14.77;;;9.90;75.80;;;;;;5034799;28;20060;-63
2022/11/12 00:02:49;;;;;;;22.90;15.32;;;9.90;75.80;;;;;;5033295;28;20036;-63
2022/11/12 00:05:33;;;;;;;20.90;14.93;;;9.90;75.80;;;;;;5032264;28;20103;-63
2022/11/12 00:08:18;;;;;;;26.70;14.35;;;9.80;75.80;;;;;;5033855;28;20497;-63
2022/11/12 00:11:03;;;;;;;21.40;13.88;;;9.80;75.80;;;;;;5032981;28;20125;-63
2022/11/12 00:13:47;;;;;;;24.60;13.90;;;9.80;75.80;;;;;;5035653;28;21149;-63
2022/11/12 00:16:31;;;;;;;20.33;12.40;;;9.80;75.90;;;;;;5034740;28;20081;-63
2022/11/12 00:19:15;;;;;;;20.45;12.65;;;9.80;75.90;;;;;;5039504;28;20079;-63
2022/11/12 00:21:59;;;;;;;20.55;13.07;;;9.70;75.80;;;;;;5036963;28;20033;-63
2022/11/12 00:24:44;;;;;;;20.55;12.15;;;9.70;75.80;;;;;;5036986;28;20048;-63
2022/11/12 00:27:28;;;;;;;18.00;12.02;;;9.70;75.80;;;;;;5034480;28;20377;-63
2022/11/12 00:30:12;;;;;;;20.98;14.02;;;9.70;75.70;;;;;;5034415;28;20488;-63
2022/11/12 00:32:56;;;;;;;16.80;10.98;;;9.70;75.70;;;;;;5036412;28;20053;-63
2022/11/12 00:35:40;;;;;;;16.95;11.30;;;9.60;75.60;;;;;;5037532;28;20112;-63
2022/11/12 00:38:24;;;;;;;21.05;11.30;;;9.60;75.60;;;;;;5039612;28;20116;-63
2022/11/12 00:41:08;;;;;;;18.58;11.27;;;9.60;75.60;;;;;;5037313;28;20104;-63
2022/11/12 00:43:52;;;;;;;17.33;10.15;;;9.60;75.60;;;;;;5035817;28;20179;-63
2022/11/12 00:46:36;;;;;;;16.13;10.43;;;9.50;75.60;;;;;;5035469;28;20037;-63
2022/11/12 00:49:20;;;;;;;21.17;11.25;;;9.60;75.60;;;;;;5036401;28;20099;-63
2022/11/12 00:52:05;;;;;;;18.60;11.38;;;9.50;76.20;;;;;;5037350;28;20096;-63
2022/11/12 00:54:49;;;;;;;15.93;10.23;;;9.50;75.60;;;;;;5036693;28;20040;-63
2022/11/12 00:57:33;;;;;;;14.80;10.68;;;9.50;75.60;;;;;;5033332;28;20405;-63
2022/11/12 01:00:18;;;;;;;17.17;10.55;;;9.50;75.50;;;;;;5034985;28;20511;-63
2022/11/12 01:03:02;;;;;;;16.63;10.82;;;9.50;75.50;;;;;;5034863;28;20481;-63
2022/11/12 01:05:46;;;;;;;15.65;10.43;;;9.50;75.50;;;;;;5034868;28;20032;-63
2022/11/12 01:08:31;;;;;;;14.63;10.05;;;9.40;75.50;;;;;;5034290;28;20489;-63
2022/11/12 01:11:19;;;;;;;17.48;11.15;;;9.40;75.50;;;;;;5034059;28;20040;-63
2022/11/12 01:14:06;;;;;;;14.48;9.38;;;9.40;75.50;;;;;;5033702;28;20041;-63
2022/11/12 01:16:50;;;;;;;16.75;10.23;;;9.40;75.50;;;;;;5033432;28;20500;-63
2022/11/12 01:19:34;;;;;;;17.25;10.85;;;9.40;75.60;;;;;;5034440;28;20048;-63
2022/11/12 01:22:19;;;;;;;14.00;9.35;;;9.40;75.60;;;;;;5034174;28;20100;-63
2022/11/12 01:25:03;;;;;;;14.63;9.75;;;9.30;75.50;;;;;;5035252;28;20044;-63
2022/11/12 01:27:48;;;;;;;16.55;10.88;;;9.30;75.60;;;;;;5035142;28;20103;-63
2022/11/12 01:30:31;;;;;;;17.45;11.40;;;9.30;75.60;;;;;;5038138;28;20047;-63
2022/11/12 01:33:15;;;;;;;16.90;10.15;;;9.30;75.50;;;;;;5035242;28;20040;-63
2022/11/12 01:35:59;;;;;;;16.70;10.05;;;9.30;75.50;;;;;;5033448;28;20099;-63
2022/11/12 01:38:44;;;;;;;14.80;9.63;;;9.30;75.50;;;;;;5030967;28;20115;-63
2022/11/12 01:41:32;;;;;;;14.88;9.85;;;9.30;75.50;;;;;;5031354;28;20370;-63
2022/11/12 01:44:23;;;;;;;15.38;10.10;;;9.30;75.50;;;;;;5032344;28;20072;-63
2022/11/12 01:47:17;;;;;;;16.55;10.88;;;9.20;75.40;;;;;;5032355;28;20040;-63
2022/11/12 01:50:20;;;;;;;14.60;9.38;;;9.20;75.50;;;;;;5034548;28;20040;-63
2022/11/12 01:53:09;;;;;;;17.20;9.73;;;9.20;75.60;;;;;;5033832;28;20500;-63
2022/11/12 01:55:55;;;;;;;15.00;8.95;;;9.20;75.60;;;;;;5030750;28;20037;-63
2022/11/12 01:58:39;;;;;;;19.85;9.57;;;9.20;75.60;;;;;;5032425;28;20067;-63
2022/11/12 02:01:24;;;;;;;16.05;9.88;;;9.20;75.70;;;;;;5034454;28;20037;-63
2022/11/12 02:04:08;;;;;;;14.75;9.70;;;9.20;75.60;;;;;;5029759;28;20176;-63
2022/11/12 02:06:55;;;;;;;13.15;8.88;;;9.10;75.50;;;;;;5033322;28;20083;-63
2022/11/12 02:09:40;;;;;;;16.83;9.20;;;9.10;75.50;;;;;;5034478;28;20099;-63
2022/11/12 02:15:27;;;;;;;16.27;10.00;;;9.10;75.50;;;;;;5031409;28;20427;-63
2022/11/12 02:18:12;;;;;;;13.27;9.07;;;9.10;75.50;;;;;;5031254;28;20111;-63
2022/11/12 02:21:02;;;;;;;14.63;9.25;;;9.00;75.50;;;;;;5033637;28;20087;-63
2022/11/12 02:23:46;;;;;;;16.10;9.60;;;9.00;75.80;;;;;;5035745;28;20045;-63
2022/11/12 02:26:36;;;;;;;13.70;8.18;;;9.00;75.40;;;;;;5037187;28;20722;-63
2022/11/12 02:29:21;;;;;;;14.32;9.30;;;9.00;75.40;;;;;;5032842;28;20118;-63
2022/11/12 02:32:05;;;;;;;15.82;9.10;;;9.00;75.40;;;;;;5033705;28;20090;-63
2022/11/12 02:34:49;;;;;;;13.95;8.93;;;8.90;75.40;;;;;;5033344;28;20485;-63
2022/11/12 02:37:33;;;;;;;15.07;9.02;;;8.90;75.40;;;;;;5030115;28;20056;-63
2022/11/12 02:40:17;;;;;;;15.27;9.07;;;8.90;75.40;;;;;;5032619;28;20430;-63
2022/11/12 02:43:02;;;;;;;13.00;8.38;;;8.90;75.40;;;;;;5032827;28;20039;-63
2022/11/12 02:45:46;;;;;;;14.13;8.38;;;8.90;75.40;;;;;;5033774;28;20151;-63
2022/11/12 02:48:29;;;;;;;15.13;8.38;;;8.90;75.30;;;;;;5029228;28;20580;-63
2022/11/12 02:51:14;;;;;;;13.88;8.45;;;8.90;75.40;;;;;;5029703;28;20040;-63
2022/11/12 02:53:58;;;;;;;13.38;8.32;;;8.90;75.40;;;;;;5030344;28;20109;-63
2022/11/12 02:56:42;;;;;;;13.05;7.60;;;8.80;75.30;;;;;;5031866;28;20044;-63
2022/11/12 02:59:26;;;;;;;14.30;8.48;;;8.80;75.30;;;;;;5031665;28;20040;-63
2022/11/12 03:02:10;;;;;;;12.15;7.90;;;8.80;75.40;;;;;;5032311;28;20489;-63
2022/11/12 03:04:54;;;;;;;12.88;7.85;;;8.70;75.40;;;;;;5031890;28;20040;-63
2022/11/12 03:07:38;;;;;;;14.15;7.65;;;8.70;75.40;;;;;;5033347;28;20076;-63
2022/11/12 03:10:23;;;;;;;12.45;8.40;;;8.70;75.40;;;;;;5032951;28;20056;-63
2022/11/12 03:13:07;;;;;;;14.77;7.65;;;8.70;75.40;;;;;;5031736;28;20075;-63
2022/11/12 03:15:59;;;;;;;13.85;7.72;;;8.70;75.40;;;;;;5033542;28;20512;-63
2022/11/12 03:18:43;;;;;;;12.27;7.75;;;8.70;75.30;;;;;;5031613;28;20184;-64
2022/11/12 03:21:27;;;;;;;12.80;8.13;;;8.70;75.30;;;;;;5033384;28;20040;-63
2022/11/12 03:24:12;;;;;;;16.00;7.60;;;8.70;76.00;;;;;;5035321;28;20037;-63
2022/11/12 03:26:56;;;;;;;13.00;7.63;;;8.70;75.30;;;;;;5041565;28;20032;-63
2022/11/12 03:29:40;;;;;;;12.98;8.20;;;8.70;75.30;;;;;;5034723;28;20109;-64
2022/11/12 03:32:24;;;;;;;13.00;7.75;;;8.70;75.30;;;;;;5033758;28;20102;-63
2022/11/12 03:35:08;;;;;;;14.75;7.78;;;8.70;75.30;;;;;;5032742;28;20091;-63
2022/11/12 03:37:52;;;;;;;12.93;8.02;;;8.60;75.20;;;;;;5033701;28;20056;-63
2022/11/12 03:40:36;;;;;;;11.65;7.20;;;8.60;75.20;;;;;;5033657;28;20369;-63
2022/11/12 03:43:20;;;;;;;12.65;7.93;;;8.60;75.30;;;;;;5034224;28;20477;-63
2022/11/12 03:46:04;;;;;;;14.50;8.05;;;8.60;75.30;;;;;;5032739;28;20044;-63
2022/11/12 03:48:48;;;;;;;13.30;8.38;;;8.60;75.30;;;;;;5032517;28;20374;-63
2022/11/12 03:51:32;;;;;;;14.10;8.27;;;8.60;75.30;;;;;;5030250;28;20469;-63
2022/11/12 03:54:17;;;;;;;14.50;9.27;;;8.60;75.30;;;;;;5037356;28;20374;-64
2022/11/12 03:57:01;;;;;;;14.18;8.23;;;8.60;75.30;;;;;;5038924;28;20115;-63
2022/11/12 03:59:45;;;;;;;15.25;8.38;;;8.60;75.20;;;;;;5037569;28;20040;-63
2022/11/12 04:02:29;;;;;;;14.00;8.38;;;8.60;75.20;;;;;;5038372;28;20453;-63
2022/11/12 04:08:34;;;;;;;13.75;8.10;;;8.50;75.30;;;;;;5037410;28;20080;-63
2022/11/12 04:11:19;;;;;;;11.48;7.03;;;8.50;75.30;;;;;;5036342;28;20205;-63
2022/11/12 04:14:04;;;;;;;14.13;7.50;;;8.50;75.40;;;;;;5030947;28;20369;-63
2022/11/12 04:22:53;;;;;;;14.93;7.63;;;8.40;75.30;;;;;;5031534;28;20068;-63
2022/11/12 04:31:49;;;;;;;11.23;7.35;;;8.40;75.40;;;;;;5006752;28;20048;-63
2022/11/12 04:34:33;;;;;;;13.65;7.03;;;8.40;75.40;;;;;;5005223;28;20081;-63
2022/11/12 04:37:18;;;;;;;12.00;6.75;;;8.40;75.50;;;;;;5013137;28;20429;-63
2022/11/12 04:44:58;;;;;;;11.32;6.82;;;8.40;75.50;;;;;;5013509;28;20375;-63
2022/11/12 04:46:18;;;;;;;12.00;7.13;;;8.40;75.50;;;;;;5010061;28;20125;-63
2022/11/12 04:49:03;;;;;;;15.00;7.57;;;8.40;75.50;;;;;;5015413;28;20100;-63
2022/11/12 04:52:06;;;;;;;14.25;7.20;;;8.40;75.50;;;;;;5006860;28;20105;-63
2022/11/12 04:54:51;;;;;;;12.82;7.40;;;8.40;75.50;;;;;;5004559;28;20187;-63
2022/11/12 04:57:36;;;;;;;14.05;7.65;;;8.40;75.50;;;;;;5009754;28;20104;-63
2022/11/12 05:00:21;;;;;;;12.10;7.25;;;8.30;75.40;;;;;;5011158;28;20469;-63
2022/11/12 05:03:05;;;;;;;12.18;7.35;;;8.30;75.50;;;;;;5011582;28;20076;-63
2022/11/12 05:05:49;;;;;;;11.20;6.60;;;8.30;75.50;;;;;;5012530;28;20378;-63
2022/11/12 05:08:34;;;;;;;11.43;6.95;;;8.30;75.40;;;;;;5019191;28;20048;-63
2022/11/12 05:11:17;;;;;;;10.43;6.85;;;8.30;75.40;;;;;;5034559;28;20119;-63
2022/11/12 05:14:02;;;;;;;11.75;6.97;;;8.30;75.50;;;;;;5029152;28;20041;-63
2022/11/12 05:16:46;;;;;;;12.65;7.28;;;8.30;75.50;;;;;;5031462;28;20080;-63
2022/11/12 05:19:33;;;;;;;11.23;6.53;;;8.30;75.50;;;;;;5034997;28;20365;-63
2022/11/12 05:22:17;;;;;;;13.45;7.97;;;8.30;75.50;;;;;;5033418;28;20032;-63
2022/11/12 05:25:01;;;;;;;12.75;7.28;;;8.20;75.50;;;;;;5034822;28;20033;-63
2022/11/12 05:27:45;;;;;;;13.38;7.30;;;8.20;75.50;;;;;;5034027;28;20048;-63
2022/11/12 05:30:29;;;;;;;13.10;7.65;;;8.30;75.50;;;;;;5028770;28;20439;-63
2022/11/12 05:33:13;;;;;;;12.00;7.05;;;8.20;75.40;;;;;;5032486;28;20064;-63
2022/11/12 05:35:59;;;;;;;11.85;7.60;;;8.20;75.50;;;;;;5034846;28;20044;-63
2022/11/12 05:38:43;;;;;;;14.90;7.55;;;8.20;75.50;;;;;;5031305;28;20094;-63
2022/11/12 05:41:27;;;;;;;10.32;7.25;;;8.20;75.50;;;;;;5031527;28;20055;-63
2022/11/12 05:44:11;;;;;;;13.10;7.15;;;8.20;75.50;;;;;;5034652;28;20422;-63
2022/11/12 05:46:55;;;;;;;11.10;7.13;;;8.20;75.50;;;;;;5034309;28;20076;-63
2022/11/12 05:49:39;;;;;;;14.20;7.25;;;8.20;75.50;;;;;;5031852;28;20044;-63
2022/11/12 05:52:24;;;;;;;11.02;6.75;;;8.20;75.50;;;;;;5035215;28;20119;-63
2022/11/12 05:55:08;;;;;;;12.82;7.72;;;8.20;75.50;;;;;;5033796;28;20087;-63
2022/11/12 05:57:52;;;;;;;10.63;6.97;;;8.10;75.40;;;;;;5034492;28;20106;-63
2022/11/12 06:00:40;;;;;;;10.23;6.43;;;8.10;75.50;;;;;;5034256;28;20039;-63
2022/11/12 06:03:25;;;;;;;12.45;6.93;;;8.10;75.50;;;;;;5031718;28;20152;-63
2022/11/12 06:06:09;;;;;;;13.25;7.18;;;8.10;75.60;;;;;;5035108;28;20129;-63
2022/11/12 06:08:54;;;;;;;13.95;8.10;;;8.10;75.50;;;;;;5035185;28;20040;-63
2022/11/12 06:11:38;;;;;;;12.30;7.13;;;8.10;75.60;;;;;;5035475;28;20041;-63
2022/11/12 06:14:22;;;;;;;13.85;7.10;;;8.10;75.60;;;;;;5034502;28;20106;-63
2022/11/12 06:17:06;;;;;;;11.77;7.30;;;8.10;75.60;;;;;;5034431;28;20060;-63
2022/11/12 06:19:50;;;;;;;12.80;7.50;;;8.00;75.50;;;;;;5033994;28;20052;-63
2022/11/12 06:22:34;;;;;;;10.85;7.22;;;8.10;75.60;;;;;;5035012;28;20068;-63
2022/11/12 06:25:19;;;;;;;12.45;7.55;;;8.00;75.60;;;;;;5034998;28;20072;-63
2022/11/12 06:28:03;;;;;;;11.90;6.90;;;8.00;75.60;;;;;;5037021;28;20048;-64
2022/11/12 06:30:47;;;;;;;12.20;6.97;;;8.00;75.60;;;;;;5035581;28;20369;-63
2022/11/12 06:33:31;;;;;;;12.77;7.13;;;8.00;75.60;;;;;;5036200;28;20094;-63
2022/11/12 06:36:18;;;;;;;11.88;7.50;;;7.90;75.60;;;;;;5029962;28;20087;-63
2022/11/12 06:39:02;;;;;;;12.35;7.45;;;8.00;75.70;;;;;;5035433;28;20107;-63
2022/11/12 06:41:47;;;;;;;11.65;7.15;;;8.00;75.60;;;;;;5035249;28;20366;-63
2022/11/12 06:44:31;;;;;;;12.20;7.72;;;8.00;75.60;;;;;;5026418;28;20052;-63
2022/11/12 06:47:15;;;;;;;12.63;6.95;;;8.00;75.60;;;;;;5034274;28;20033;-63
2022/11/12 06:49:59;;;;;;;12.23;7.32;;;8.00;75.60;;;;;;5035903;28;20496;-63
2022/11/12 06:52:43;;;;;;;12.73;7.63;;;8.00;75.60;;;;;;5026555;28;20068;-63
2022/11/12 06:55:27;;;;;;;15.85;7.88;;;8.00;75.60;;;;;;5034123;28;20144;-63
2022/11/12 06:58:11;;;;;;;12.20;6.78;;;8.00;75.70;;;;;;5037244;28;20041;-63
2022/11/12 07:00:55;;;;;;;10.20;6.50;;;8.00;75.70;;;;;;5033455;28;20044;-64
2022/11/12 07:03:40;;;;;;;14.05;7.60;;;8.00;75.70;;;;;;5032668;28;20481;-63
2022/11/12 07:06:24;;;;;;;12.93;7.88;;;8.00;75.80;;;;;;5030565;28;20095;-63
2022/11/12 07:09:08;;;;;;;12.77;7.47;;;8.00;75.80;;;;;;5030724;28;20120;-63
2022/11/12 07:11:52;;;;;;;14.43;7.60;;;8.00;75.80;;;;;;5034627;28;20045;-64
2022/11/12 07:14:36;;;;;;;13.00;6.60;;;8.00;75.80;;;;;;5033670;28;20127;-64
2022/11/12 07:17:20;;;;;;;11.02;6.38;;;8.10;75.90;;;;;;5036984;28;20072;-63
2022/11/12 07:20:05;;;;;;;13.00;6.65;;;8.10;75.80;;;;;;5035176;28;20510;-65
2022/11/12 07:22:49;;;;;;;10.75;6.75;;;8.10;75.80;;;;;;5033878;28;20052;-64
2022/11/12 07:25:33;;;;;;;11.93;7.50;;;8.10;75.90;;;;;;5034701;28;20051;-64
2022/11/12 07:28:17;;;;;;;11.85;7.53;;;8.20;76.00;;;;;;5034864;28;20044;-64
2022/11/12 07:31:04;;;;;;;10.13;6.47;;;8.20;76.00;;;;;;5027166;28;20041;-64
2022/11/12 07:33:49;;;;;;;11.63;6.20;;;8.20;76.00;;;;;;5046143;28;20040;-63
2022/11/12 07:36:33;;;;;;;10.82;6.47;;;8.20;76.00;;;;;;5033938;28;20120;-64
2022/11/12 07:39:17;;;;;;;10.32;5.93;;;8.30;76.10;;;;;;5033853;28;20063;-63
2022/11/12 07:42:01;;;;;;;11.55;6.03;;;8.30;76.20;;;;;;5033539;28;20040;-64
2022/11/12 07:44:45;;;;;;;11.32;7.05;;;8.30;76.20;;;;;;5035802;28;20040;-64
2022/11/12 07:47:29;;;;;;;11.75;6.40;;;8.30;76.20;;;;;;5035622;28;20103;-64
2022/11/12 07:50:13;;;;;;;10.65;6.47;;;8.30;76.30;;;;;;5027008;28;20044;-63
2022/11/12 07:52:58;;;;;;;11.60;6.90;;;8.30;76.30;;;;;;5021139;28;20480;-64
2022/11/12 07:55:51;;;;;;;10.98;6.35;;;8.40;76.50;;;;;;5033082;28;20132;-64
2022/11/12 07:58:35;;;;;;;10.20;6.35;;;8.40;76.40;;;;;;5031881;28;20095;-64
2022/11/12 08:01:38;;;;;;;11.40;6.25;;;8.40;76.40;;;;;;5025825;28;20056;-64
2022/11/12 08:04:23;;;;;;;12.88;6.20;;;8.50;76.60;;;;;;5033731;28;20036;-64
2022/11/12 08:07:07;;;;;;;13.73;6.85;;;8.50;76.50;;;;;;5034878;28;20103;-64
2022/11/12 08:09:51;;;;;;;10.32;6.15;;;8.50;76.50;;;;;;5025971;28;20048;-64
2022/11/12 08:12:35;;;;;;;11.15;6.97;;;8.60;76.60;;;;;;5033717;28;20048;-63
2022/11/12 08:15:19;;;;;;;12.10;6.35;;;8.60;76.60;;;;;;5032742;28;20049;-64
2022/11/12 08:18:03;;;;;;;11.45;6.47;;;8.70;76.60;;;;;;5032559;28;20052;-64
2022/11/12 08:20:47;;;;;;;11.20;6.55;;;8.80;76.60;;;;;;5032942;28;20515;-64
2022/11/12 08:23:31;;;;;;;11.70;7.13;;;8.80;76.60;;;;;;5034624;28;20052;-64
2022/11/12 08:26:17;;;;;;;11.25;7.30;;;8.90;76.60;;;;;;5034123;28;20056;-64
2022/11/12 08:29:02;;;;;;;12.82;6.93;;;9.00;76.60;;;;;;5033576;28;20044;-64
2022/11/12 08:31:46;;;;;;;14.18;7.68;;;9.10;76.60;;;;;;5034258;28;20044;-64
2022/11/12 08:34:30;;;;;;;13.23;7.63;;;9.20;76.50;;;;;;5034310;28;20068;-64
2022/11/12 08:37:15;;;;;;;12.95;8.00;;;9.30;76.50;;;;;;5035243;28;20047;-64
2022/11/12 08:39:59;;;;;;;13.98;8.52;;;9.40;76.30;;;;;;5037710;28;20083;-64
2022/11/12 08:42:43;;;;;;;14.25;8.63;;;9.50;76.30;;;;;;5037636;28;20036;-64
2022/11/12 08:45:27;;;;;;;12.98;8.05;;;9.50;76.30;;;;;;5037099;28;20122;-64
2022/11/12 08:48:13;;;;;;;15.05;8.65;;;9.60;76.30;;;;;;5037696;28;20116;-64
2022/11/12 08:51:01;;;;;;;15.95;9.35;;;9.70;76.30;;;;;;5037676;28;20429;-64
2022/11/12 08:53:45;;;;;;;17.05;8.25;;;9.80;76.20;;;;;;5037644;28;20040;-64
2022/11/12 08:56:29;;;;;;;13.50;8.30;;;9.90;76.10;;;;;;5036699;28;20485;-64
2022/11/12 08:59:13;;;;;;;16.10;8.55;;;10.00;76.10;;;;;;5027896;28;20091;-64
2022/11/12 09:01:57;;;;;;;12.88;7.90;;;10.00;76.00;;;;;;5036970;28;20059;-64
2022/11/12 09:04:41;;;;;;;15.05;8.07;;;10.20;76.00;;;;;;5036437;28;20048;-64
2022/11/12 09:07:25;;;;;;;14.20;8.27;;;10.20;75.90;;;;;;5026759;28;20373;-64
2022/11/12 09:10:09;;;;;;;15.30;8.70;;;10.30;75.80;;;;;;5035529;28;20477;-64
2022/11/12 09:12:53;;;;;;;11.52;7.47;;;10.40;75.70;;;;;;5035230;28;20086;-64
2022/11/12 09:15:37;;;;;;;13.65;9.00;;;10.50;75.60;;;;;;5036015;28;20091;-63
2022/11/12 09:18:21;;;;;;;12.57;7.35;;;10.60;75.40;;;;;;5036206;28;20131;-64
2022/11/12 09:21:09;;;;;;;11.93;7.40;;;10.80;75.30;;;;;;5032921;28;20063;-64
2022/11/12 09:23:54;;;;;;;12.25;7.72;;;10.90;75.20;;;;;;5035613;28;20052;-64
2022/11/12 09:26:38;;;;;;;11.55;7.45;;;11.00;75.00;;;;;;5036105;28;20042;-64
2022/11/12 09:29:22;;;;;;;11.80;7.30;;;11.10;75.00;;;;;;5033654;28;20211;-64
2022/11/12 09:32:06;;;;;;;10.77;6.82;;;11.20;74.90;;;;;;5035789;28;20053;-64
2022/11/12 09:34:50;;;;;;;11.43;7.20;;;11.20;74.70;;;;;;5035064;28;20370;-64
2022/11/12 09:37:36;;;;;;;13.30;7.32;;;11.30;74.60;;;;;;5036242;28;20107;-64
2022/11/12 09:40:21;;;;;;;11.73;7.40;;;11.40;74.40;;;;;;5023202;28;20371;-64
2022/11/12 09:43:24;;;;;;;10.35;6.60;;;11.50;74.20;;;;;;5035051;28;20041;-64
2022/11/12 09:46:34;;;;;;;13.93;6.97;;;11.70;74.00;;;;;;5030423;28;20041;-64
2022/11/12 09:49:35;;;;;;;10.85;6.60;;;11.80;73.70;;;;;;5034823;28;20091;-64
2022/11/12 09:52:24;;;;;;;12.70;6.45;;;11.90;73.50;;;;;;5035142;28;20044;-64
2022/11/12 09:55:37;;;;;;;15.20;7.00;;;12.10;73.30;;;;;;5035059;28;20084;-64
2022/11/12 09:58:23;;;;;;;11.70;6.72;;;12.40;73.00;;;;;;5033337;28;20049;-64
2022/11/12 10:01:29;;;;;;;12.13;6.57;;;12.70;72.40;;;;;;5034532;28;20044;-64
2022/11/12 10:04:39;;;;;;;15.95;7.75;;;12.90;71.90;;;;;;5035481;28;20091;-64
2022/11/12 10:07:39;;;;;;;13.15;7.07;;;13.20;71.50;;;;;;5036458;28;20045;-64
2022/11/12 10:10:44;;;;;;;10.98;6.18;;;13.40;70.80;;;;;;5033553;28;20041;-64
2022/11/12 10:13:41;;;;;;;12.88;6.50;;;13.60;70.40;;;;;;5038611;28;20060;-64
2022/11/12 10:17:05;;;;;;;10.77;6.60;;;13.90;70.20;;;;;;5033619;28;20076;-65
2022/11/12 10:20:18;;;;;;;10.63;6.28;;;14.00;69.80;;;;;;5032206;28;20045;-64
2022/11/12 10:23:16;;;;;;;11.48;6.75;;;14.20;69.40;;;;;;5018125;28;20048;-64
2022/11/12 10:26:10;;;;;;;10.57;5.60;;;14.20;69.10;;;;;;5029184;28;20120;-64
2022/11/12 10:29:10;;;;;;;11.88;6.75;;;14.40;68.90;;;;;;5035704;28;20032;-64
2022/11/12 10:31:54;;;;;;;10.35;6.13;;;14.50;68.60;;;;;;5036646;28;20132;-64
2022/11/12 10:34:39;;;;;;;8.70;5.32;;;14.50;68.50;;;;;;5033170;28;20079;-64
2022/11/12 10:37:32;;;;;;;10.25;6.30;;;14.60;68.40;;;;;;5035108;28;20068;-64
2022/11/12 10:40:25;;;;;;;9.63;5.82;;;14.60;68.10;;;;;;5031430;28;20048;-64
2022/11/12 10:43:15;;;;;;;11.35;6.03;;;14.70;68.00;;;;;;5034933;28;20036;-64
2022/11/12 10:46:17;;;;;;;11.23;6.10;;;14.70;67.80;;;;;;5034751;28;20044;-64
2022/11/12 10:49:04;;;;;;;;;;;14.80;67.50;;;;;;5032226;28;20115;-64
2022/11/12 10:51:55;;;;;;;12.05;6.20;;;14.80;67.70;;;;;;5029688;28;19959;-64
2022/11/12 10:54:40;;;;;;;10.13;6.38;;;14.80;67.50;;;;;;5024727;28;20506;-63
2022/11/12 10:57:26;;;;;;;10.45;6.35;;;14.80;67.50;;;;;;5036095;28;20044;-64
2022/11/12 11:00:13;;;;;;;9.77;6.13;;;14.80;67.40;;;;;;5024657;28;20421;-64
2022/11/12 11:02:59;;;;;;;10.38;6.25;;;14.80;67.20;;;;;;5035378;28;20520;-63
2022/11/12 11:05:59;;;;;;;10.73;6.65;;;14.80;67.10;;;;;;5035254;28;20124;-63
2022/11/12 11:08:48;;;;;;;11.48;6.97;;;14.80;66.90;;;;;;5017410;28;20100;-63
2022/11/12 11:11:33;;;;;;;10.48;7.22;;;14.80;66.90;;;;;;5031221;28;20127;-64
2022/11/12 11:14:23;;;;;;;10.30;6.85;;;14.80;66.90;;;;;;5033988;28;20084;-64
2022/11/12 11:17:16;;;;;;;11.13;6.90;;;14.80;66.90;;;;;;5034171;28;20125;-64
2022/11/12 11:20:01;;;;;;;12.00;7.00;;;14.80;67.00;;;;;;5036783;28;20374;-63
2022/11/12 11:22:54;;;;;;;12.98;6.72;;;14.70;67.10;;;;;;5035566;28;20359;-63
2022/11/12 11:25:39;;;;;;;11.20;6.70;;;14.70;67.20;;;;;;5025626;28;20413;-63
2022/11/12 11:28:32;;;;;;;10.60;6.07;;;14.70;67.30;;;;;;5034268;28;20053;-64
2022/11/12 11:31:52;;;;;;;11.90;6.40;;;14.60;67.30;;;;;;5030136;28;20032;-63
2022/11/12 11:35:02;;;;;;;10.77;6.13;;;14.60;67.40;;;;;;5030911;28;20499;-63
2022/11/12 11:38:30;;;;;;;9.65;6.00;;;14.50;67.50;;;;;;5027014;28;20040;-63
2022/11/12 11:41:37;;;;;;;11.32;6.60;;;14.40;67.60;;;;;;5031835;28;20053;-64
2022/11/12 11:44:35;;;;;;;12.40;6.88;;;14.40;67.70;;;;;;5034052;28;20107;-64
2022/11/12 11:47:25;;;;;;;12.07;6.53;;;14.30;67.80;;;;;;5033397;28;20083;-64
2022/11/12 11:50:27;;;;;;;13.38;6.90;;;14.30;67.90;;;;;;5035271;28;20036;-64
2022/11/12 11:53:22;;;;;;;10.80;6.15;;;14.30;68.00;;;;;;5024678;28;20090;-64
2022/11/12 11:56:18;;;;;;;11.57;6.93;;;14.30;68.20;;;;;;5033582;28;20036;-65
2022/11/12 11:59:39;;;;;;;12.07;6.18;;;14.20;68.20;;;;;;5034811;28;20044;-64
2022/11/12 12:02:55;;;;;;;9.52;6.47;;;14.20;68.40;;;;;;5022054;28;20040;-64
2022/11/12 12:05:50;;;;;;;9.65;6.13;;;14.10;68.50;;;;;;5027664;28;20063;-64
2022/11/12 12:08:53;;;;;;;9.63;6.47;;;14.10;68.50;;;;;;5019456;28;20040;-64
2022/11/12 12:11:56;;;;;;;10.50;6.15;;;14.10;68.60;;;;;;5034738;28;20378;-65
2022/11/12 12:14:47;;;;;;;12.32;6.90;;;14.10;69.30;;;;;;5037915;28;20044;-64
2022/11/12 12:17:58;;;;;;;11.63;6.45;;;14.10;68.70;;;;;;5039004;28;20512;-64
2022/11/12 12:20:42;;;;;;;10.52;6.75;;;14.10;68.80;;;;;;5032921;28;20063;-65
2022/11/12 12:23:36;;;;;;;10.68;6.53;;;14.00;68.90;;;;;;5034250;28;20117;-64
2022/11/12 12:26:26;;;;;;;11.35;7.13;;;14.00;69.00;;;;;;5023906;28;20484;-64
2022/11/12 12:29:16;;;;;;;12.25;8.10;;;14.00;69.10;;;;;;5038274;28;20366;-64
2022/11/12 12:32:08;;;;;;;10.00;6.78;;;14.00;69.10;;;;;;5038157;28;20075;-64
2022/11/12 12:35:25;;;;;;;11.80;6.82;;;14.00;69.20;;;;;;5037517;28;20048;-64
2022/11/12 12:38:48;;;;;;;12.07;6.43;;;14.00;69.10;;;;;;5034773;28;20469;-64
2022/11/12 12:41:51;;;;;;;11.60;7.10;;;14.00;69.20;;;;;;5028859;28;20453;-64
2022/11/12 12:45:00;;;;;;;10.68;7.05;;;14.00;69.30;;;;;;5038124;28;20212;-64
2022/11/12 12:47:46;;;;;;;10.23;6.75;;;14.00;69.40;;;;;;5024876;28;20035;-64
2022/11/12 12:50:31;;;;;;;10.30;6.95;;;14.00;69.50;;;;;;5038028;28;20452;-64
2022/11/12 12:53:21;;;;;;;10.98;6.97;;;13.90;69.60;;;;;;5036513;28;20052;-64
2022/11/12 12:56:31;;;;;;;12.27;8.35;;;14.00;69.70;;;;;;5037796;28;20040;-64
2022/11/12 12:59:18;;;;;;;11.88;7.55;;;14.00;69.80;;;;;;5036530;28;20040;-64
2022/11/12 13:02:02;;;;;;;11.05;6.78;;;14.00;69.80;;;;;;5037007;28;20514;-64
2022/11/12 13:04:53;;;;;;;10.68;6.97;;;14.00;69.90;;;;;;5025128;28;20037;-64
2022/11/12 13:07:46;;;;;;;11.80;6.95;;;14.00;69.90;;;;;;5036687;28;20037;-64
2022/11/12 13:10:46;;;;;;;10.68;6.72;;;14.00;69.90;;;;;;5029683;28;20095;-64
2022/11/12 13:13:35;;;;;;;11.30;6.90;;;14.00;69.90;;;;;;5031016;28;20358;-64
2022/11/12 13:16:51;;;;;;;11.32;6.95;;;14.00;69.90;;;;;;5036807;28;20087;-64
2022/11/12 13:19:35;;;;;;;10.63;6.60;;;14.00;69.90;;;;;;5034070;28;20067;-64
2022/11/12 13:22:22;;;;;;;10.77;6.68;;;14.00;69.90;;;;;;5037197;28;20111;-64
2022/11/12 13:25:07;;;;;;;11.07;6.90;;;14.00;70.00;;;;;;5036502;28;20037;-64
2022/11/12 13:27:51;;;;;;;9.48;6.00;;;14.00;70.00;;;;;;5034925;28;20048;-64
2022/11/12 13:30:35;;;;;;;10.82;7.15;;;14.10;70.10;;;;;;5036557;28;20028;-64
2022/11/12 13:33:30;;;;;;;11.48;6.97;;;14.10;70.20;;;;;;5037158;28;20045;-64
2022/11/12 13:36:27;;;;;;;12.48;7.50;;;14.10;70.30;;;;;;5036464;28;20464;-64
2022/11/12 13:39:15;;;;;;;13.20;6.55;;;14.10;70.30;;;;;;5036707;28;20068;-64
2022/11/12 13:45:04;;;;;;;15.05;7.13;;;14.10;70.50;;;;;;5030124;28;20465;-64
2022/11/12 13:47:50;;;;;;;12.50;7.70;;;14.10;70.50;;;;;;5027177;28;20037;-64
2022/11/12 13:50:34;;;;;;;14.02;8.18;;;14.10;70.70;;;;;;5036893;28;20040;-64
2022/11/12 13:53:24;;;;;;;11.27;6.88;;;14.10;70.70;;;;;;5035832;28;20546;-64
2022/11/12 13:56:10;;;;;;;12.57;7.47;;;14.10;70.80;;;;;;5036448;28;20092;-64
2022/11/12 13:59:07;;;;;;;11.60;7.00;;;14.10;71.00;;;;;;5035315;28;20401;-64
2022/11/12 14:01:51;;;;;;;15.88;7.65;;;14.10;71.10;;;;;;5035681;28;20037;-64
2022/11/12 14:04:36;;;;;;;10.75;7.10;;;14.10;71.20;;;;;;5036265;28;20035;-64
2022/11/12 14:07:26;;;;;;;11.40;7.63;;;14.10;71.40;;;;;;5036239;28;20044;-64
2022/11/12 14:10:32;;;;;;;11.10;7.20;;;14.10;71.50;;;;;;5036502;28;20505;-64
2022/11/12 14:13:39;;;;;;;11.48;7.78;;;14.10;71.60;;;;;;5023483;28;20098;-64
2022/11/12 14:16:53;;;;;;;12.57;8.50;;;14.10;71.70;;;;;;5033198;28;20128;-65
2022/11/12 14:19:53;;;;;;;12.10;7.72;;;14.10;71.90;;;;;;5036059;28;20126;-64
2022/11/12 14:22:40;;;;;;;11.35;7.65;;;14.10;72.00;;;;;;5036063;28;20183;-64
2022/11/12 14:25:26;;;;;;;11.07;7.72;;;14.00;72.10;;;;;;5036161;28;20091;-64
2022/11/12 14:28:27;;;;;;;11.05;7.63;;;14.00;72.20;;;;;;5035628;28;20090;-64
2022/11/12 14:31:13;;;;;;;12.30;7.95;;;14.10;72.40;;;;;;5035650;28;20528;-64
2022/11/12 14:34:18;;;;;;;13.80;8.45;;;14.00;72.40;;;;;;5034657;28;20040;-64
2022/11/12 14:37:02;;;;;;;13.95;8.10;;;14.00;72.60;;;;;;5026242;28;20111;-64
2022/11/12 14:39:46;;;;;;;14.68;8.27;;;14.00;72.70;;;;;;5034910;28;20059;-63
2022/11/12 14:42:33;;;;;;;13.48;8.27;;;14.00;72.80;;;;;;5027579;28;20044;-64
2022/11/12 14:45:20;;;;;;;12.98;7.30;;;14.00;72.90;;;;;;5035231;28;20044;-64
2022/11/12 14:48:08;;;;;;;12.10;7.50;;;14.00;73.10;;;;;;5036560;28;20375;-64
2022/11/12 14:51:03;;;;;;;11.60;7.65;;;14.00;73.10;;;;;;5028732;28;20164;-64
2022/11/12 14:53:57;;;;;;;10.77;7.07;;;14.00;73.20;;;;;;5024218;28;20068;-64
2022/11/12 14:56:46;;;;;;;12.90;7.50;;;14.00;73.20;;;;;;5034664;28;20040;-64